sensor_id;sensor_type;location;lat;lon;timestamp;P1;durP1;ratioP1;P2;durP2;ratioP2
79468;SDS011;68936;52.526;13.326;2023-04-16T00:01:28;23.55;;;12.52;;
79468;SDS011;68936;52.526;13.326;2023-04-16T00:03:54;20.48;;;12.63;;
79468;SDS011;68936;52.526;13.326;2023-04-16T00:06:21;21.42;;;12.15;;
79468;SDS011;68936;52.526;13.326;2023-04-16T00:08:47;23.02;;;11.75;;
79468;SDS011;68936;52.526;13.326;2023-04-16T00:11:12;21.85;;;12.43;;
79468;SDS011;68936;52.526;13.326;2023-04-16T00:13:38;21.10;;;12.65;;
79468;SDS011;68936;52.526;13.326;2023-04-16T00:16:06;23.20;;;12.30;;
79468;SDS011;68936;52.526;13.326;2023-04-16T00:18:34;21.17;;;12.32;;
79468;SDS011;68936;52.526;13.326;2023-04-16T00:21:00;19.50;;;11.70;;
79468;SDS011;68936;52.526;13.326;2023-04-16T00:23:28;24.30;;;13.25;;
79468;SDS011;68936;52.526;13.326;2023-04-16T00:25:56;22.50;;;12.23;;
79468;SDS011;68936;52.526;13.326;2023-04-16T00:28:23;23.17;;;12.35;;
79468;SDS011;68936;52.526;13.326;2023-04-16T00:30:50;21.40;;;12.30;;
79468;SDS011;68936;52.526;13.326;2023-04-16T00:33:18;22.55;;;12.57;;
79468;SDS011;68936;52.526;13.326;2023-04-16T00:35:46;20.77;;;12.02;;
79468;SDS011;68936;52.526;13.326;2023-04-16T00:38:12;19.65;;;12.32;;
79468;SDS011;68936;52.526;13.326;2023-04-16T00:40:38;21.27;;;11.90;;
79468;SDS011;68936;52.526;13.326;2023-04-16T00:43:04;19.67;;;12.07;;
79468;SDS011;68936;52.526;13.326;2023-04-16T00:45:30;18.10;;;11.20;;
79468;SDS011;68936;52.526;13.326;2023-04-16T00:47:56;21.70;;;11.50;;
79468;SDS011;68936;52.526;13.326;2023-04-16T00:50:26;19.67;;;11.50;;
79468;SDS011;68936;52.526;13.326;2023-04-16T00:52:52;20.35;;;11.57;;
79468;SDS011;68936;52.526;13.326;2023-04-16T00:55:17;20.58;;;11.30;;
79468;SDS011;68936;52.526;13.326;2023-04-16T00:57:45;19.65;;;10.65;;
79468;SDS011;68936;52.526;13.326;2023-04-16T01:00:11;20.65;;;11.35;;
79468;SDS011;68936;52.526;13.326;2023-04-16T01:02:37;17.45;;;11.35;;
79468;SDS011;68936;52.526;13.326;2023-04-16T01:05:04;21.40;;;11.77;;
79468;SDS011;68936;52.526;13.326;2023-04-16T01:07:30;20.67;;;12.18;;
79468;SDS011;68936;52.526;13.326;2023-04-16T01:09:56;18.45;;;11.45;;
79468;SDS011;68936;52.526;13.326;2023-04-16T01:12:22;17.67;;;10.70;;
79468;SDS011;68936;52.526;13.326;2023-04-16T01:14:47;18.50;;;10.93;;
79468;SDS011;68936;52.526;13.326;2023-04-16T01:17:13;20.25;;;10.88;;
79468;SDS011;68936;52.526;13.326;2023-04-16T01:19:39;16.63;;;10.57;;
79468;SDS011;68936;52.526;13.326;2023-04-16T01:22:07;17.92;;;11.13;;
79468;SDS011;68936;52.526;13.326;2023-04-16T01:24:35;17.35;;;10.90;;
79468;SDS011;68936;52.526;13.326;2023-04-16T01:27:04;18.42;;;11.10;;
79468;SDS011;68936;52.526;13.326;2023-04-16T01:29:32;18.20;;;11.45;;
79468;SDS011;68936;52.526;13.326;2023-04-16T01:31:57;17.48;;;10.27;;
79468;SDS011;68936;52.526;13.326;2023-04-16T01:34:23;18.90;;;10.70;;
79468;SDS011;68936;52.526;13.326;2023-04-16T01:36:51;17.98;;;11.35;;
79468;SDS011;68936;52.526;13.326;2023-04-16T01:39:16;16.67;;;10.65;;
79468;SDS011;68936;52.526;13.326;2023-04-16T01:41:45;18.40;;;10.52;;
79468;SDS011;68936;52.526;13.326;2023-04-16T01:44:11;14.98;;;10.60;;
79468;SDS011;68936;52.526;13.326;2023-04-16T01:46:41;16.40;;;10.45;;
79468;SDS011;68936;52.526;13.326;2023-04-16T01:49:08;16.55;;;10.45;;
79468;SDS011;68936;52.526;13.326;2023-04-16T01:51:36;16.20;;;10.57;;
79468;SDS011;68936;52.526;13.326;2023-04-16T01:54:02;18.33;;;11.35;;
79468;SDS011;68936;52.526;13.326;2023-04-16T01:56:30;17.17;;;10.73;;
79468;SDS011;68936;52.526;13.326;2023-04-16T01:58:55;15.80;;;10.52;;
79468;SDS011;68936;52.526;13.326;2023-04-16T02:01:21;13.98;;;10.00;;
79468;SDS011;68936;52.526;13.326;2023-04-16T02:03:52;16.25;;;10.27;;
79468;SDS011;68936;52.526;13.326;2023-04-16T02:06:17;16.50;;;10.40;;
79468;SDS011;68936;52.526;13.326;2023-04-16T02:08:43;13.93;;;9.90;;
79468;SDS011;68936;52.526;13.326;2023-04-16T02:11:11;16.08;;;9.98;;
79468;SDS011;68936;52.526;13.326;2023-04-16T02:13:36;15.27;;;10.05;;
79468;SDS011;68936;52.526;13.326;2023-04-16T02:16:04;15.98;;;10.30;;
79468;SDS011;68936;52.526;13.326;2023-04-16T02:18:30;14.38;;;10.05;;
79468;SDS011;68936;52.526;13.326;2023-04-16T02:20:56;15.55;;;10.02;;
79468;SDS011;68936;52.526;13.326;2023-04-16T02:23:26;15.52;;;9.70;;
79468;SDS011;68936;52.526;13.326;2023-04-16T02:25:52;16.10;;;10.45;;
79468;SDS011;68936;52.526;13.326;2023-04-16T02:28:17;16.50;;;10.13;;
79468;SDS011;68936;52.526;13.326;2023-04-16T02:30:43;17.00;;;10.20;;
79468;SDS011;68936;52.526;13.326;2023-04-16T02:33:11;12.85;;;9.45;;
79468;SDS011;68936;52.526;13.326;2023-04-16T02:35:38;14.95;;;9.52;;
79468;SDS011;68936;52.526;13.326;2023-04-16T02:38:06;14.88;;;10.18;;
79468;SDS011;68936;52.526;13.326;2023-04-16T02:40:32;13.90;;;9.38;;
79468;SDS011;68936;52.526;13.326;2023-04-16T02:42:58;14.95;;;9.55;;
79468;SDS011;68936;52.526;13.326;2023-04-16T02:45:24;16.35;;;10.32;;
79468;SDS011;68936;52.526;13.326;2023-04-16T02:47:50;15.10;;;9.50;;
79468;SDS011;68936;52.526;13.326;2023-04-16T02:50:16;14.38;;;9.20;;
79468;SDS011;68936;52.526;13.326;2023-04-16T02:52:42;14.35;;;9.52;;
79468;SDS011;68936;52.526;13.326;2023-04-16T02:55:08;15.32;;;10.07;;
79468;SDS011;68936;52.526;13.326;2023-04-16T02:57:34;15.95;;;9.27;;
79468;SDS011;68936;52.526;13.326;2023-04-16T03:00:02;11.95;;;8.98;;
79468;SDS011;68936;52.526;13.326;2023-04-16T03:02:29;15.95;;;9.52;;
79468;SDS011;68936;52.526;13.326;2023-04-16T03:04:57;14.07;;;9.43;;
79468;SDS011;68936;52.526;13.326;2023-04-16T03:07:25;14.00;;;9.18;;
79468;SDS011;68936;52.526;13.326;2023-04-16T03:09:50;17.17;;;9.75;;
79468;SDS011;68936;52.526;13.326;2023-04-16T03:12:18;14.80;;;10.05;;
79468;SDS011;68936;52.526;13.326;2023-04-16T03:14:46;12.85;;;8.82;;
79468;SDS011;68936;52.526;13.326;2023-04-16T03:17:14;11.88;;;9.05;;
79468;SDS011;68936;52.526;13.326;2023-04-16T03:19:39;14.68;;;9.93;;
79468;SDS011;68936;52.526;13.326;2023-04-16T03:22:05;13.00;;;8.98;;
79468;SDS011;68936;52.526;13.326;2023-04-16T03:24:31;14.30;;;9.25;;
79468;SDS011;68936;52.526;13.326;2023-04-16T03:26:59;14.98;;;9.43;;
79468;SDS011;68936;52.526;13.326;2023-04-16T03:29:25;14.18;;;9.55;;
79468;SDS011;68936;52.526;13.326;2023-04-16T03:31:54;15.57;;;9.65;;
79468;SDS011;68936;52.526;13.326;2023-04-16T03:34:20;13.77;;;9.73;;
79468;SDS011;68936;52.526;13.326;2023-04-16T03:36:45;14.93;;;8.90;;
79468;SDS011;68936;52.526;13.326;2023-04-16T03:39:11;13.75;;;9.02;;
79468;SDS011;68936;52.526;13.326;2023-04-16T03:41:37;13.93;;;9.20;;
79468;SDS011;68936;52.526;13.326;2023-04-16T03:44:02;13.77;;;9.88;;
79468;SDS011;68936;52.526;13.326;2023-04-16T03:46:28;13.25;;;8.88;;
79468;SDS011;68936;52.526;13.326;2023-04-16T03:48:53;13.63;;;8.98;;
79468;SDS011;68936;52.526;13.326;2023-04-16T03:51:19;13.90;;;8.65;;
79468;SDS011;68936;52.526;13.326;2023-04-16T03:53:45;12.40;;;8.60;;
79468;SDS011;68936;52.526;13.326;2023-04-16T03:56:10;14.43;;;9.65;;
79468;SDS011;68936;52.526;13.326;2023-04-16T03:58:36;14.18;;;9.25;;
79468;SDS011;68936;52.526;13.326;2023-04-16T04:01:02;12.57;;;8.85;;
79468;SDS011;68936;52.526;13.326;2023-04-16T04:03:27;11.88;;;8.68;;
79468;SDS011;68936;52.526;13.326;2023-04-16T04:05:55;12.75;;;8.48;;
79468;SDS011;68936;52.526;13.326;2023-04-16T04:08:21;14.20;;;8.60;;
79468;SDS011;68936;52.526;13.326;2023-04-16T04:10:51;13.10;;;8.25;;
79468;SDS011;68936;52.526;13.326;2023-04-16T04:13:16;12.57;;;8.98;;
79468;SDS011;68936;52.526;13.326;2023-04-16T04:15:46;13.18;;;9.38;;
79468;SDS011;68936;52.526;13.326;2023-04-16T04:18:11;13.27;;;8.68;;
79468;SDS011;68936;52.526;13.326;2023-04-16T04:20:43;14.45;;;9.10;;
79468;SDS011;68936;52.526;13.326;2023-04-16T04:23:11;14.20;;;8.90;;
79468;SDS011;68936;52.526;13.326;2023-04-16T04:25:37;11.13;;;8.02;;
79468;SDS011;68936;52.526;13.326;2023-04-16T04:28:03;12.00;;;8.13;;
79468;SDS011;68936;52.526;13.326;2023-04-16T04:30:31;13.63;;;8.88;;
79468;SDS011;68936;52.526;13.326;2023-04-16T04:32:56;11.90;;;8.30;;
79468;SDS011;68936;52.526;13.326;2023-04-16T04:35:22;11.50;;;8.20;;
79468;SDS011;68936;52.526;13.326;2023-04-16T04:37:50;10.75;;;8.13;;
79468;SDS011;68936;52.526;13.326;2023-04-16T04:40:18;13.02;;;8.73;;
79468;SDS011;68936;52.526;13.326;2023-04-16T04:42:47;12.82;;;8.07;;
79468;SDS011;68936;52.526;13.326;2023-04-16T04:45:12;13.15;;;8.15;;
79468;SDS011;68936;52.526;13.326;2023-04-16T04:47:40;12.20;;;8.63;;
79468;SDS011;68936;52.526;13.326;2023-04-16T04:50:06;12.27;;;8.27;;
79468;SDS011;68936;52.526;13.326;2023-04-16T04:52:35;12.57;;;8.60;;
79468;SDS011;68936;52.526;13.326;2023-04-16T04:55:03;11.48;;;8.50;;
79468;SDS011;68936;52.526;13.326;2023-04-16T04:57:29;11.80;;;8.40;;
79468;SDS011;68936;52.526;13.326;2023-04-16T04:59:54;11.32;;;8.63;;
79468;SDS011;68936;52.526;13.326;2023-04-16T05:02:20;12.07;;;8.45;;
79468;SDS011;68936;52.526;13.326;2023-04-16T05:04:46;12.32;;;8.55;;
79468;SDS011;68936;52.526;13.326;2023-04-16T05:07:11;11.30;;;7.97;;
79468;SDS011;68936;52.526;13.326;2023-04-16T05:09:37;12.02;;;7.85;;
79468;SDS011;68936;52.526;13.326;2023-04-16T05:12:02;12.13;;;8.52;;
79468;SDS011;68936;52.526;13.326;2023-04-16T05:14:31;12.40;;;8.38;;
79468;SDS011;68936;52.526;13.326;2023-04-16T05:16:56;9.60;;;7.45;;
79468;SDS011;68936;52.526;13.326;2023-04-16T05:19:22;10.65;;;8.00;;
79468;SDS011;68936;52.526;13.326;2023-04-16T05:21:50;12.05;;;7.97;;
79468;SDS011;68936;52.526;13.326;2023-04-16T05:24:16;10.60;;;7.97;;
79468;SDS011;68936;52.526;13.326;2023-04-16T05:26:41;12.18;;;8.57;;
79468;SDS011;68936;52.526;13.326;2023-04-16T05:29:09;10.98;;;7.70;;
79468;SDS011;68936;52.526;13.326;2023-04-16T05:31:37;10.15;;;7.75;;
79468;SDS011;68936;52.526;13.326;2023-04-16T05:34:03;13.20;;;8.32;;
79468;SDS011;68936;52.526;13.326;2023-04-16T05:36:31;11.43;;;7.47;;
79468;SDS011;68936;52.526;13.326;2023-04-16T05:38:59;13.30;;;8.20;;
79468;SDS011;68936;52.526;13.326;2023-04-16T05:41:24;11.77;;;8.05;;
79468;SDS011;68936;52.526;13.326;2023-04-16T05:43:50;11.75;;;7.97;;
79468;SDS011;68936;52.526;13.326;2023-04-16T05:46:16;10.20;;;7.68;;
79468;SDS011;68936;52.526;13.326;2023-04-16T05:48:41;10.88;;;7.63;;
79468;SDS011;68936;52.526;13.326;2023-04-16T05:51:09;10.75;;;7.65;;
79468;SDS011;68936;52.526;13.326;2023-04-16T05:53:35;11.98;;;7.85;;
79468;SDS011;68936;52.526;13.326;2023-04-16T05:56:03;10.48;;;7.47;;
79468;SDS011;68936;52.526;13.326;2023-04-16T05:58:31;10.88;;;7.38;;
79468;SDS011;68936;52.526;13.326;2023-04-16T06:00:57;10.48;;;7.15;;
79468;SDS011;68936;52.526;13.326;2023-04-16T06:03:25;10.38;;;8.18;;
79468;SDS011;68936;52.526;13.326;2023-04-16T06:05:51;11.35;;;7.63;;
79468;SDS011;68936;52.526;13.326;2023-04-16T06:08:21;11.35;;;7.80;;
79468;SDS011;68936;52.526;13.326;2023-04-16T06:10:47;10.07;;;7.75;;
79468;SDS011;68936;52.526;13.326;2023-04-16T06:13:15;11.23;;;7.47;;
79468;SDS011;68936;52.526;13.326;2023-04-16T06:15:43;10.10;;;7.47;;
79468;SDS011;68936;52.526;13.326;2023-04-16T06:18:09;11.43;;;8.23;;
79468;SDS011;68936;52.526;13.326;2023-04-16T06:20:35;11.55;;;8.23;;
79468;SDS011;68936;52.526;13.326;2023-04-16T06:23:03;9.23;;;7.38;;
79468;SDS011;68936;52.526;13.326;2023-04-16T06:25:28;11.43;;;7.78;;
79468;SDS011;68936;52.526;13.326;2023-04-16T06:27:54;9.18;;;7.10;;
79468;SDS011;68936;52.526;13.326;2023-04-16T06:30:20;9.35;;;6.80;;
79468;SDS011;68936;52.526;13.326;2023-04-16T06:32:45;10.15;;;7.65;;
79468;SDS011;68936;52.526;13.326;2023-04-16T06:35:11;10.90;;;7.32;;
79468;SDS011;68936;52.526;13.326;2023-04-16T06:37:37;10.38;;;7.07;;
79468;SDS011;68936;52.526;13.326;2023-04-16T06:40:03;10.45;;;7.10;;
79468;SDS011;68936;52.526;13.326;2023-04-16T06:42:29;11.50;;;7.05;;
79468;SDS011;68936;52.526;13.326;2023-04-16T06:44:57;10.82;;;7.30;;
79468;SDS011;68936;52.526;13.326;2023-04-16T06:47:25;12.13;;;7.72;;
79468;SDS011;68936;52.526;13.326;2023-04-16T06:49:51;9.90;;;7.47;;
79468;SDS011;68936;52.526;13.326;2023-04-16T06:52:19;10.32;;;7.55;;
79468;SDS011;68936;52.526;13.326;2023-04-16T06:54:47;9.20;;;6.97;;
79468;SDS011;68936;52.526;13.326;2023-04-16T06:57:15;10.07;;;6.75;;
79468;SDS011;68936;52.526;13.326;2023-04-16T06:59:41;10.20;;;7.00;;
79468;SDS011;68936;52.526;13.326;2023-04-16T07:02:07;11.63;;;7.40;;
79468;SDS011;68936;52.526;13.326;2023-04-16T07:04:34;9.85;;;6.63;;
79468;SDS011;68936;52.526;13.326;2023-04-16T07:07:00;10.35;;;7.30;;
79468;SDS011;68936;52.526;13.326;2023-04-16T07:09:28;9.75;;;6.82;;
79468;SDS011;68936;52.526;13.326;2023-04-16T07:11:54;13.02;;;7.68;;
79468;SDS011;68936;52.526;13.326;2023-04-16T07:14:19;13.13;;;7.32;;
79468;SDS011;68936;52.526;13.326;2023-04-16T07:16:45;11.18;;;6.97;;
79468;SDS011;68936;52.526;13.326;2023-04-16T07:19:11;11.52;;;6.97;;
79468;SDS011;68936;52.526;13.326;2023-04-16T07:21:39;10.50;;;7.28;;
79468;SDS011;68936;52.526;13.326;2023-04-16T07:24:07;12.18;;;7.72;;
79468;SDS011;68936;52.526;13.326;2023-04-16T07:26:37;12.07;;;7.30;;
79468;SDS011;68936;52.526;13.326;2023-04-16T07:29:03;11.45;;;7.72;;
79468;SDS011;68936;52.526;13.326;2023-04-16T07:31:29;11.80;;;7.47;;
79468;SDS011;68936;52.526;13.326;2023-04-16T07:33:57;13.75;;;7.45;;
79468;SDS011;68936;52.526;13.326;2023-04-16T07:36:23;13.88;;;7.90;;
79468;SDS011;68936;52.526;13.326;2023-04-16T07:38:51;17.90;;;8.10;;
79468;SDS011;68936;52.526;13.326;2023-04-16T07:41:17;12.57;;;7.63;;
79468;SDS011;68936;52.526;13.326;2023-04-16T07:43:43;14.45;;;7.95;;
79468;SDS011;68936;52.526;13.326;2023-04-16T07:46:10;17.00;;;8.52;;
79468;SDS011;68936;52.526;13.326;2023-04-16T07:48:36;13.07;;;7.70;;
79468;SDS011;68936;52.526;13.326;2023-04-16T07:51:01;17.92;;;8.73;;
79468;SDS011;68936;52.526;13.326;2023-04-16T07:53:27;15.48;;;8.50;;
79468;SDS011;68936;52.526;13.326;2023-04-16T07:55:53;10.77;;;8.05;;
79468;SDS011;68936;52.526;13.326;2023-04-16T07:58:21;14.05;;;7.95;;
79468;SDS011;68936;52.526;13.326;2023-04-16T08:00:51;14.50;;;8.70;;
79468;SDS011;68936;52.526;13.326;2023-04-16T08:03:17;17.30;;;8.90;;
79468;SDS011;68936;52.526;13.326;2023-04-16T08:05:43;20.08;;;9.00;;
79468;SDS011;68936;52.526;13.326;2023-04-16T08:08:08;11.75;;;8.48;;
79468;SDS011;68936;52.526;13.326;2023-04-16T08:10:34;14.15;;;8.98;;
79468;SDS011;68936;52.526;13.326;2023-04-16T08:13:00;13.07;;;8.68;;
79468;SDS011;68936;52.526;13.326;2023-04-16T08:15:26;12.13;;;8.60;;
79468;SDS011;68936;52.526;13.326;2023-04-16T08:17:52;11.52;;;8.73;;
79468;SDS011;68936;52.526;13.326;2023-04-16T08:20:19;15.80;;;8.85;;
79468;SDS011;68936;52.526;13.326;2023-04-16T08:22:45;12.77;;;8.68;;
79468;SDS011;68936;52.526;13.326;2023-04-16T08:25:11;14.68;;;8.50;;
79468;SDS011;68936;52.526;13.326;2023-04-16T08:27:38;13.85;;;9.00;;
79468;SDS011;68936;52.526;13.326;2023-04-16T08:30:04;11.32;;;7.93;;
79468;SDS011;68936;52.526;13.326;2023-04-16T08:32:30;11.98;;;8.52;;
79468;SDS011;68936;52.526;13.326;2023-04-16T08:34:56;13.95;;;9.05;;
79468;SDS011;68936;52.526;13.326;2023-04-16T08:37:22;10.90;;;8.05;;
79468;SDS011;68936;52.526;13.326;2023-04-16T08:39:55;13.52;;;8.77;;
79468;SDS011;68936;52.526;13.326;2023-04-16T08:42:26;12.30;;;9.00;;
79468;SDS011;68936;52.526;13.326;2023-04-16T08:45:16;13.15;;;8.50;;
79468;SDS011;68936;52.526;13.326;2023-04-16T08:47:47;12.02;;;7.95;;
79468;SDS011;68936;52.526;13.326;2023-04-16T08:50:21;11.07;;;7.82;;
79468;SDS011;68936;52.526;13.326;2023-04-16T08:52:52;12.45;;;9.05;;
79468;SDS011;68936;52.526;13.326;2023-04-16T08:55:23;13.32;;;8.73;;
79468;SDS011;68936;52.526;13.326;2023-04-16T08:57:57;10.48;;;7.47;;
79468;SDS011;68936;52.526;13.326;2023-04-16T09:00:24;11.85;;;7.97;;
79468;SDS011;68936;52.526;13.326;2023-04-16T09:02:50;12.30;;;8.15;;
79468;SDS011;68936;52.526;13.326;2023-04-16T09:05:17;11.95;;;8.77;;
79468;SDS011;68936;52.526;13.326;2023-04-16T09:07:45;11.25;;;8.43;;
79468;SDS011;68936;52.526;13.326;2023-04-16T09:10:13;10.13;;;7.90;;
79468;SDS011;68936;52.526;13.326;2023-04-16T09:12:42;10.25;;;8.20;;
79468;SDS011;68936;52.526;13.326;2023-04-16T09:15:08;13.20;;;8.70;;
79468;SDS011;68936;52.526;13.326;2023-04-16T09:17:35;10.85;;;8.07;;
79468;SDS011;68936;52.526;13.326;2023-04-16T09:20:01;11.73;;;7.80;;
79468;SDS011;68936;52.526;13.326;2023-04-16T09:22:30;11.18;;;8.55;;
79468;SDS011;68936;52.526;13.326;2023-04-16T09:24:55;12.75;;;8.52;;
79468;SDS011;68936;52.526;13.326;2023-04-16T09:27:21;11.15;;;8.05;;
79468;SDS011;68936;52.526;13.326;2023-04-16T09:29:48;11.07;;;8.52;;
79468;SDS011;68936;52.526;13.326;2023-04-16T09:32:16;10.77;;;8.18;;
79468;SDS011;68936;52.526;13.326;2023-04-16T09:34:54;13.07;;;8.50;;
79468;SDS011;68936;52.526;13.326;2023-04-16T09:37:25;9.48;;;7.40;;
79468;SDS011;68936;52.526;13.326;2023-04-16T09:40:02;9.95;;;7.28;;
79468;SDS011;68936;52.526;13.326;2023-04-16T09:42:30;9.20;;;7.57;;
79468;SDS011;68936;52.526;13.326;2023-04-16T09:44:57;9.55;;;7.35;;
79468;SDS011;68936;52.526;13.326;2023-04-16T09:47:44;10.18;;;7.68;;
79468;SDS011;68936;52.526;13.326;2023-04-16T09:50:14;10.52;;;7.90;;
79468;SDS011;68936;52.526;13.326;2023-04-16T09:52:42;11.77;;;7.32;;
79468;SDS011;68936;52.526;13.326;2023-04-16T09:55:10;10.80;;;7.68;;
79468;SDS011;68936;52.526;13.326;2023-04-16T09:57:40;11.75;;;8.65;;
79468;SDS011;68936;52.526;13.326;2023-04-16T10:00:08;10.48;;;7.70;;
79468;SDS011;68936;52.526;13.326;2023-04-16T10:02:35;12.68;;;7.65;;
79468;SDS011;68936;52.526;13.326;2023-04-16T10:05:05;10.93;;;7.80;;
79468;SDS011;68936;52.526;13.326;2023-04-16T10:07:38;11.07;;;7.43;;
79468;SDS011;68936;52.526;13.326;2023-04-16T10:10:04;9.07;;;7.20;;
79468;SDS011;68936;52.526;13.326;2023-04-16T10:12:30;10.13;;;8.38;;
79468;SDS011;68936;52.526;13.326;2023-04-16T10:14:59;10.90;;;8.00;;
79468;SDS011;68936;52.526;13.326;2023-04-16T10:17:28;11.20;;;8.20;;
79468;SDS011;68936;52.526;13.326;2023-04-16T10:19:56;12.52;;;8.27;;
79468;SDS011;68936;52.526;13.326;2023-04-16T10:22:24;9.40;;;7.25;;
79468;SDS011;68936;52.526;13.326;2023-04-16T10:24:50;10.68;;;7.45;;
79468;SDS011;68936;52.526;13.326;2023-04-16T10:27:19;9.70;;;7.70;;
79468;SDS011;68936;52.526;13.326;2023-04-16T10:29:45;11.15;;;7.88;;
79468;SDS011;68936;52.526;13.326;2023-04-16T10:32:12;9.93;;;7.45;;
79468;SDS011;68936;52.526;13.326;2023-04-16T10:34:43;11.27;;;7.93;;
79468;SDS011;68936;52.526;13.326;2023-04-16T10:37:11;10.88;;;8.20;;
79468;SDS011;68936;52.526;13.326;2023-04-16T10:39:38;9.90;;;7.90;;
79468;SDS011;68936;52.526;13.326;2023-04-16T10:44:36;11.55;;;8.02;;
79468;SDS011;68936;52.526;13.326;2023-04-16T10:47:08;9.90;;;7.68;;
79468;SDS011;68936;52.526;13.326;2023-04-16T10:49:38;10.20;;;7.65;;
79468;SDS011;68936;52.526;13.326;2023-04-16T10:52:11;9.48;;;7.35;;
79468;SDS011;68936;52.526;13.326;2023-04-16T10:54:41;11.95;;;8.20;;
79468;SDS011;68936;52.526;13.326;2023-04-16T10:57:14;9.88;;;7.50;;
79468;SDS011;68936;52.526;13.326;2023-04-16T10:59:42;12.05;;;7.35;;
79468;SDS011;68936;52.526;13.326;2023-04-16T11:02:16;11.02;;;7.97;;
79468;SDS011;68936;52.526;13.326;2023-04-16T11:04:45;9.52;;;7.30;;
79468;SDS011;68936;52.526;13.326;2023-04-16T11:07:16;10.77;;;7.20;;
79468;SDS011;68936;52.526;13.326;2023-04-16T11:12:18;11.18;;;8.13;;
79468;SDS011;68936;52.526;13.326;2023-04-16T11:14:56;10.32;;;7.82;;
79468;SDS011;68936;52.526;13.326;2023-04-16T11:17:26;9.20;;;7.18;;
79468;SDS011;68936;52.526;13.326;2023-04-16T11:20:08;9.48;;;7.72;;
79468;SDS011;68936;52.526;13.326;2023-04-16T11:22:47;10.25;;;7.63;;
79468;SDS011;68936;52.526;13.326;2023-04-16T11:25:20;9.77;;;7.22;;
79468;SDS011;68936;52.526;13.326;2023-04-16T11:27:51;8.90;;;7.43;;
79468;SDS011;68936;52.526;13.326;2023-04-16T11:30:33;10.05;;;7.55;;
79468;SDS011;68936;52.526;13.326;2023-04-16T11:33:09;9.27;;;7.30;;
79468;SDS011;68936;52.526;13.326;2023-04-16T11:35:37;9.68;;;7.35;;
79468;SDS011;68936;52.526;13.326;2023-04-16T11:38:06;9.82;;;7.25;;
79468;SDS011;68936;52.526;13.326;2023-04-16T11:40:31;9.25;;;7.30;;
79468;SDS011;68936;52.526;13.326;2023-04-16T11:43:15;9.45;;;6.97;;
79468;SDS011;68936;52.526;13.326;2023-04-16T11:48:25;8.52;;;6.70;;
79468;SDS011;68936;52.526;13.326;2023-04-16T11:51:10;10.50;;;7.38;;
79468;SDS011;68936;52.526;13.326;2023-04-16T11:53:47;7.95;;;6.72;;
79468;SDS011;68936;52.526;13.326;2023-04-16T11:56:27;10.23;;;7.60;;
79468;SDS011;68936;52.526;13.326;2023-04-16T11:59:27;9.70;;;7.32;;
79468;SDS011;68936;52.526;13.326;2023-04-16T12:01:51;8.95;;;6.82;;
79468;SDS011;68936;52.526;13.326;2023-04-16T12:04:21;10.07;;;7.57;;
79468;SDS011;68936;52.526;13.326;2023-04-16T12:09:40;7.90;;;6.25;;
79468;SDS011;68936;52.526;13.326;2023-04-16T12:14:54;9.15;;;7.20;;
79468;SDS011;68936;52.526;13.326;2023-04-16T12:17:23;9.45;;;7.55;;
79468;SDS011;68936;52.526;13.326;2023-04-16T12:19:59;10.85;;;7.22;;
79468;SDS011;68936;52.526;13.326;2023-04-16T12:22:30;8.70;;;6.78;;
79468;SDS011;68936;52.526;13.326;2023-04-16T12:25:00;10.07;;;7.03;;
79468;SDS011;68936;52.526;13.326;2023-04-16T12:30:13;9.43;;;6.97;;
79468;SDS011;68936;52.526;13.326;2023-04-16T12:32:40;8.18;;;6.55;;
79468;SDS011;68936;52.526;13.326;2023-04-16T12:35:06;8.77;;;6.95;;
79468;SDS011;68936;52.526;13.326;2023-04-16T12:37:33;8.43;;;6.35;;
79468;SDS011;68936;52.526;13.326;2023-04-16T12:40:02;8.52;;;6.82;;
79468;SDS011;68936;52.526;13.326;2023-04-16T12:42:31;9.55;;;7.00;;
79468;SDS011;68936;52.526;13.326;2023-04-16T12:45:04;9.10;;;7.07;;
79468;SDS011;68936;52.526;13.326;2023-04-16T12:47:31;8.73;;;6.72;;
79468;SDS011;68936;52.526;13.326;2023-04-16T12:49:57;7.82;;;5.95;;
79468;SDS011;68936;52.526;13.326;2023-04-16T12:52:23;8.48;;;7.00;;
79468;SDS011;68936;52.526;13.326;2023-04-16T12:54:54;8.75;;;6.47;;
79468;SDS011;68936;52.526;13.326;2023-04-16T12:57:20;8.70;;;7.03;;
79468;SDS011;68936;52.526;13.326;2023-04-16T12:59:53;8.98;;;7.00;;
79468;SDS011;68936;52.526;13.326;2023-04-16T13:02:20;8.38;;;6.95;;
79468;SDS011;68936;52.526;13.326;2023-04-16T13:04:49;8.75;;;6.72;;
79468;SDS011;68936;52.526;13.326;2023-04-16T13:07:15;8.75;;;6.93;;
79468;SDS011;68936;52.526;13.326;2023-04-16T13:09:41;9.57;;;7.30;;
79468;SDS011;68936;52.526;13.326;2023-04-16T13:12:07;9.07;;;7.18;;
79468;SDS011;68936;52.526;13.326;2023-04-16T13:14:33;8.32;;;6.68;;
79468;SDS011;68936;52.526;13.326;2023-04-16T13:17:01;8.73;;;7.18;;
79468;SDS011;68936;52.526;13.326;2023-04-16T13:19:28;9.27;;;7.63;;
79468;SDS011;68936;52.526;13.326;2023-04-16T13:21:53;10.05;;;7.20;;
79468;SDS011;68936;52.526;13.326;2023-04-16T13:24:21;8.80;;;6.97;;
79468;SDS011;68936;52.526;13.326;2023-04-16T13:26:49;8.40;;;6.82;;
79468;SDS011;68936;52.526;13.326;2023-04-16T13:29:16;8.85;;;6.90;;
79468;SDS011;68936;52.526;13.326;2023-04-16T13:31:45;9.38;;;7.22;;
79468;SDS011;68936;52.526;13.326;2023-04-16T13:34:11;8.20;;;6.40;;
79468;SDS011;68936;52.526;13.326;2023-04-16T13:36:39;8.48;;;7.25;;
79468;SDS011;68936;52.526;13.326;2023-04-16T13:39:05;8.02;;;6.50;;
79468;SDS011;68936;52.526;13.326;2023-04-16T13:41:40;7.68;;;6.43;;
79468;SDS011;68936;52.526;13.326;2023-04-16T13:44:06;9.00;;;6.90;;
79468;SDS011;68936;52.526;13.326;2023-04-16T13:46:32;9.23;;;6.78;;
79468;SDS011;68936;52.526;13.326;2023-04-16T13:48:58;7.40;;;6.60;;
79468;SDS011;68936;52.526;13.326;2023-04-16T13:51:26;9.13;;;6.82;;
79468;SDS011;68936;52.526;13.326;2023-04-16T13:53:52;8.98;;;7.05;;
79468;SDS011;68936;52.526;13.326;2023-04-16T13:56:18;8.73;;;6.82;;
79468;SDS011;68936;52.526;13.326;2023-04-16T13:58:44;8.85;;;7.07;;
79468;SDS011;68936;52.526;13.326;2023-04-16T14:01:10;8.82;;;7.07;;
79468;SDS011;68936;52.526;13.326;2023-04-16T14:03:35;8.40;;;6.70;;
79468;SDS011;68936;52.526;13.326;2023-04-16T14:06:02;8.88;;;6.57;;
79468;SDS011;68936;52.526;13.326;2023-04-16T14:08:31;8.13;;;6.68;;
79468;SDS011;68936;52.526;13.326;2023-04-16T14:10:56;8.63;;;6.25;;
79468;SDS011;68936;52.526;13.326;2023-04-16T14:13:27;10.98;;;6.95;;
79468;SDS011;68936;52.526;13.326;2023-04-16T14:15:53;10.25;;;6.38;;
79468;SDS011;68936;52.526;13.326;2023-04-16T14:18:18;10.73;;;7.10;;
79468;SDS011;68936;52.526;13.326;2023-04-16T14:20:46;10.80;;;6.47;;
79468;SDS011;68936;52.526;13.326;2023-04-16T14:23:12;9.07;;;6.00;;
79468;SDS011;68936;52.526;13.326;2023-04-16T14:25:38;16.60;;;7.03;;
79468;SDS011;68936;52.526;13.326;2023-04-16T14:28:06;11.27;;;6.35;;
79468;SDS011;68936;52.526;13.326;2023-04-16T14:30:33;14.85;;;6.38;;
79468;SDS011;68936;52.526;13.326;2023-04-16T14:32:58;9.10;;;6.50;;
79468;SDS011;68936;52.526;13.326;2023-04-16T14:35:27;9.07;;;6.07;;
79468;SDS011;68936;52.526;13.326;2023-04-16T14:37:56;15.98;;;6.25;;
79468;SDS011;68936;52.526;13.326;2023-04-16T14:40:22;10.23;;;6.20;;
79468;SDS011;68936;52.526;13.326;2023-04-16T14:42:47;9.43;;;6.28;;